Terminal Aerodrome Forecast
Issued by NWS

Home | Current Version | Previous Version | Text Only | Print | Product List | Glossary On
Versions: 1 2 3 4 5 6 7 8 9 10 11 12 13 14 15
000
FTUS41 KBGM 301735
TAFITH
TAF
KITH 301735Z 3018/0118 09010KT P6SM -SHRA OVC100
     FM302000 12008KT P6SM OVC025
     FM010400 14008KT 5SM BR OVC015
      TEMPO 0108/0112 2SM BR OVC008
     FM011500 15010KT P6SM OVC025=

USA.gov is the U.S. government's official web portal to all federal, state and local government web resources and services.